UGMS Airport Information

Runway Information
Airport Frequencies
Airport Navaids
Airport Weather Information & NOTAM
ADDS - METARS form results

(2226 UTC 11 April 2021)
Data provider http://aviationweather.gov/metar/data/
 
METAR text: UGMS 112200Z AUTO 20004KT 130V230 //// ////// 04/04 Q////
Conditions at: UGMS (MESTIA , GE) observed 2200 UTC 11 April 2021
Temperature: 4.0°C (39°F)
Dewpoint: 4.0°C (39°F) [RH = 100%]
Pressure (altimeter): missing
Winds: from the SSW (200 degrees) at 5 MPH (4 knots; 2.1 m/s)
Visibility: missing
Ceiling: unknown
Clouds: missing
Weather: no significant weather observed at this time

METAR text: UGMS 112130Z AUTO VRB03KT //// ////// 04/04 Q1019
Conditions at: UGMS (MESTIA , GE) observed 2130 UTC 11 April 2021
Temperature: 4.0°C (39°F)
Dewpoint: 4.0°C (39°F) [RH = 100%]
Pressure (altimeter): 30.09 inches Hg (1019.0 mb)
Winds: variable direction winds at 3 MPH (3 knots; 1.5 m/s)
Visibility: missing
Ceiling: unknown
Clouds: missing
Weather: no significant weather observed at this time